createdAt,value
2023-01-15T00:01:04.508Z,-22.66
2023-01-15T00:04:08.500Z,-22.63
2023-01-15T00:07:11.649Z,-22.65
2023-01-15T00:10:14.821Z,-22.66
2023-01-15T00:13:17.913Z,-22.74
2023-01-15T00:16:23.980Z,-22.75
2023-01-15T00:19:27.209Z,-22.78
2023-01-15T00:22:30.721Z,-22.81
2023-01-15T00:25:52.362Z,-22.83
2023-01-15T00:28:56.205Z,-22.70
2023-01-15T00:32:09.151Z,-22.65
2023-01-15T00:35:15.170Z,-22.57
2023-01-15T00:38:18.933Z,-22.54
2023-01-15T00:41:23.201Z,-22.50
2023-01-15T00:44:29.498Z,-22.58
2023-01-15T00:47:35.975Z,-22.54
2023-01-15T00:50:40.472Z,-22.50
2023-01-15T00:53:44.287Z,-22.43
2023-01-15T00:56:47.935Z,-22.44
2023-01-15T00:59:52.259Z,-22.44
2023-01-15T01:02:57.456Z,-22.40
2023-01-15T01:06:04.556Z,-22.26
2023-01-15T01:09:15.272Z,-22.12
2023-01-15T01:12:22.119Z,-22.06
2023-01-15T01:15:26.643Z,-21.92
2023-01-15T01:18:30.529Z,-21.86
2023-01-15T01:21:34.146Z,-21.87
2023-01-15T01:24:39.844Z,-21.84
2023-01-15T01:27:48.735Z,-21.67
2023-01-15T01:30:55.215Z,-21.51
2023-01-15T01:34:01.878Z,-21.36
2023-01-15T01:37:05.738Z,-21.28
2023-01-15T01:40:10.152Z,-21.14
2023-01-15T01:43:32.239Z,-21.07
2023-01-15T01:46:37.596Z,-21.04
2023-01-15T01:49:42.416Z,-20.93
2023-01-15T01:53:09.784Z,-20.74
2023-01-15T01:56:13.406Z,-20.54
2023-01-15T01:59:18.360Z,-20.31
2023-01-15T02:02:23.798Z,-20.13
2023-01-15T02:05:31.860Z,-19.89
2023-01-15T02:08:42.401Z,-19.66
2023-01-15T02:11:45.709Z,-19.49
2023-01-15T02:15:04.513Z,-19.35
2023-01-15T02:18:35.440Z,-19.18
2023-01-15T02:22:08.333Z,-18.94
2023-01-15T02:25:21.099Z,-18.83
2023-01-15T02:28:32.006Z,-18.77
2023-01-15T02:31:39.279Z,-18.75
2023-01-15T02:34:51.048Z,-18.68
2023-01-15T02:38:02.449Z,-18.63
2023-01-15T02:41:08.325Z,-18.44
2023-01-15T02:44:19.268Z,-18.33
2023-01-15T02:47:29.693Z,-18.19
2023-01-15T02:50:40.063Z,-18.09
2023-01-15T02:53:50.274Z,-18.04
2023-01-15T02:56:58.326Z,-17.96
2023-01-15T03:00:06.417Z,-17.90
2023-01-15T03:03:48.867Z,-17.80
2023-01-15T03:07:10.777Z,-17.70
2023-01-15T03:10:15.907Z,-17.63
2023-01-15T03:13:44.778Z,-17.52
2023-01-15T03:16:57.760Z,-17.42
2023-01-15T03:20:18.299Z,-17.30
2023-01-15T03:23:26.253Z,-17.19
2023-01-15T03:26:39.461Z,-17.10
2023-01-15T03:29:49.182Z,-17.01
2023-01-15T03:32:55.011Z,-16.94
2023-01-15T03:36:01.859Z,-16.84
2023-01-15T03:39:18.681Z,-16.78
2023-01-15T03:43:17.604Z,-16.67
2023-01-15T03:46:43.333Z,-16.60
2023-01-15T03:49:58.421Z,-16.57
2023-01-15T03:53:21.270Z,-16.56
2023-01-15T03:56:51.294Z,-16.49
2023-01-15T03:59:58.973Z,-16.39
2023-01-15T04:03:05.166Z,-16.30
2023-01-15T04:06:11.296Z,-16.20
2023-01-15T04:09:16.428Z,-16.17
2023-01-15T04:12:21.180Z,-16.15
2023-01-15T04:15:33.951Z,-16.10
2023-01-15T04:18:46.961Z,-16.06
2023-01-15T04:21:54.167Z,-15.98
2023-01-15T04:25:00.542Z,-16.04
2023-01-15T04:28:04.262Z,-16.03
2023-01-15T04:31:11.224Z,-15.96
2023-01-15T04:34:20.638Z,-15.92
2023-01-15T04:37:25.502Z,-15.90
2023-01-15T04:40:50.837Z,-15.85
2023-01-15T04:47:32.476Z,-15.73
2023-01-15T04:50:40.421Z,-15.68
2023-01-15T04:53:48.947Z,-15.57
2023-01-15T04:57:16.094Z,-15.49
2023-01-15T05:00:19.640Z,-15.46
2023-01-15T05:03:22.725Z,-15.29
2023-01-15T05:06:29.365Z,-15.24
2023-01-15T05:09:33.146Z,-15.20
2023-01-15T05:12:36.169Z,-15.15
2023-01-15T05:15:41.334Z,-15.10
2023-01-15T05:18:45.736Z,-15.05
2023-01-15T05:21:48.979Z,-14.95
2023-01-15T05:24:52.514Z,-14.92
2023-01-15T05:27:55.629Z,-14.90
2023-01-15T05:30:58.867Z,-14.81
2023-01-15T05:34:02.711Z,-14.74
2023-01-15T05:37:05.793Z,-14.65
2023-01-15T05:40:09.643Z,-14.55
2023-01-15T05:43:12.842Z,-14.41
2023-01-15T05:46:15.929Z,-14.26
2023-01-15T05:49:21.956Z,-14.09
2023-01-15T05:52:25.115Z,-13.95
2023-01-15T05:55:28.736Z,-13.77
2023-01-15T05:58:32.560Z,-13.61
2023-01-15T06:01:36.597Z,-13.51
2023-01-15T06:04:43.011Z,-13.37
2023-01-15T06:07:46.085Z,-13.27
2023-01-15T06:10:50.880Z,-13.17
2023-01-15T06:13:54.316Z,-13.10
2023-01-15T06:16:57.519Z,-13.06
2023-01-15T06:20:00.593Z,-13.01
2023-01-15T06:23:04.284Z,-12.97
2023-01-15T06:26:17.334Z,-12.94
2023-01-15T06:29:21.443Z,-12.93
2023-01-15T06:32:24.678Z,-12.87
2023-01-15T06:35:28.189Z,-12.85
2023-01-15T06:38:31.288Z,-12.79
2023-01-15T06:41:54.009Z,-12.78
2023-01-15T06:45:15.729Z,-12.78
2023-01-15T06:48:19.799Z,-12.84
2023-01-15T06:51:24.122Z,-12.89
2023-01-15T06:54:27.467Z,-12.98
2023-01-15T06:57:31.281Z,-13.12
2023-01-15T07:00:35.366Z,-13.17
2023-01-15T07:03:38.605Z,-13.16
2023-01-15T07:06:42.025Z,-13.15
2023-01-15T07:09:45.761Z,-13.15
2023-01-15T07:12:48.911Z,-13.15
2023-01-15T07:15:52.106Z,-13.15
2023-01-15T07:18:58.565Z,-13.24
2023-01-15T07:22:01.983Z,-13.27
2023-01-15T07:25:05.692Z,-13.24
2023-01-15T07:28:09.021Z,-12.77
2023-01-15T07:31:12.164Z,-11.96
2023-01-15T07:34:15.722Z,-11.95
2023-01-15T07:37:19.167Z,-12.33
2023-01-15T07:40:22.474Z,-12.77
2023-01-15T07:43:43.780Z,-13.13
2023-01-15T07:47:05.879Z,-13.40
2023-01-15T07:50:13.095Z,-13.63
2023-01-15T07:53:16.133Z,-13.85
2023-01-15T07:56:19.302Z,-14.02
2023-01-15T07:59:22.539Z,-14.15
2023-01-15T08:02:25.640Z,-14.24
2023-01-15T08:05:29.174Z,-14.36
2023-01-15T08:08:32.325Z,-14.55
2023-01-15T08:11:53.996Z,-14.72
2023-01-15T08:15:15.812Z,-14.93
2023-01-15T08:18:19.139Z,-15.02
2023-01-15T08:21:22.446Z,-15.08
2023-01-15T08:24:25.840Z,-15.16
2023-01-15T08:27:29.729Z,-15.28
2023-01-15T08:30:32.833Z,-15.39
2023-01-15T08:33:36.230Z,-15.54
2023-01-15T08:36:39.474Z,-15.70
2023-01-15T08:39:42.584Z,-15.81
2023-01-15T08:42:45.716Z,-15.97
2023-01-15T08:45:49.026Z,-16.08
2023-01-15T08:48:52.243Z,-16.15
2023-01-15T08:51:55.382Z,-16.21
2023-01-15T08:54:58.514Z,-16.26
2023-01-15T08:58:01.786Z,-16.34
2023-01-15T09:01:09.821Z,-16.41
2023-01-15T09:04:18.597Z,-16.45
2023-01-15T09:07:21.896Z,-16.49
2023-01-15T09:10:25.520Z,-16.56
2023-01-15T09:13:30.455Z,-16.60
2023-01-15T09:16:33.980Z,-16.67
2023-01-15T09:19:37.100Z,-16.76
2023-01-15T09:22:40.738Z,-16.80
2023-01-15T09:25:56.627Z,-16.85
2023-01-15T09:29:00.691Z,-17.01
2023-01-15T09:32:03.924Z,-17.20
2023-01-15T09:35:07.541Z,-17.35
2023-01-15T09:38:16.377Z,-17.59
2023-01-15T09:41:50.769Z,-17.76
2023-01-15T09:45:14.919Z,-17.93
2023-01-15T09:48:34.425Z,-18.05
2023-01-15T09:51:55.212Z,-18.20
2023-01-15T09:55:08.662Z,-18.32
2023-01-15T09:58:14.732Z,-18.36
2023-01-15T10:01:21.553Z,-18.35
2023-01-15T10:04:43.751Z,-18.43
2023-01-15T10:08:07.387Z,-18.42
2023-01-15T10:11:16.636Z,-18.31
2023-01-15T10:14:40.392Z,-18.26
2023-01-15T10:17:49.894Z,-18.20
2023-01-15T10:21:09.188Z,-18.10
2023-01-15T10:24:18.287Z,-18.08
2023-01-15T10:27:24.460Z,-18.11
2023-01-15T10:30:54.146Z,-18.14
2023-01-15T10:34:22.908Z,-18.22
2023-01-15T10:37:31.501Z,-18.26
2023-01-15T10:41:02.358Z,-18.35
2023-01-15T10:44:21.726Z,-18.40
2023-01-15T10:47:34.185Z,-18.37
2023-01-15T10:50:37.959Z,-18.44
2023-01-15T10:54:03.001Z,-18.47
2023-01-15T10:57:20.394Z,-18.52
2023-01-15T11:00:25.150Z,-18.55
2023-01-15T11:03:37.734Z,-18.60
2023-01-15T11:06:41.217Z,-18.67
2023-01-15T11:09:44.854Z,-18.69
2023-01-15T11:13:38.187Z,-18.73
2023-01-15T11:17:02.578Z,-18.76
2023-01-15T11:20:18.920Z,-18.83
2023-01-15T11:23:24.257Z,-18.83
2023-01-15T11:26:33.108Z,-18.87
2023-01-15T11:29:38.513Z,-18.92
2023-01-15T11:32:42.355Z,-19.06
2023-01-15T11:35:51.449Z,-19.10
2023-01-15T11:38:56.197Z,-19.20
2023-01-15T11:42:20.100Z,-19.35
2023-01-15T11:45:43.852Z,-19.43
2023-01-15T11:49:08.808Z,-19.38
2023-01-15T11:52:22.421Z,-19.30
2023-01-15T11:55:27.814Z,-19.24
2023-01-15T11:58:40.259Z,-19.21
2023-01-15T12:02:01.252Z,-19.19
2023-01-15T12:05:06.464Z,-19.26
2023-01-15T12:08:38.597Z,-19.35
2023-01-15T12:11:50.602Z,-19.34
2023-01-15T12:15:07.723Z,-19.33
2023-01-15T12:18:46.367Z,-19.49
2023-01-15T12:22:05.794Z,-19.51
2023-01-15T12:25:33.162Z,-19.43
2023-01-15T12:28:41.361Z,-19.27
2023-01-15T12:31:53.760Z,-19.17
2023-01-15T12:35:26.656Z,-19.10
2023-01-15T12:38:45.352Z,-19.05
2023-01-15T12:42:16.823Z,-18.97
2023-01-15T12:45:29.528Z,-19.02
2023-01-15T12:48:48.193Z,-19.13
2023-01-15T12:52:01.307Z,-19.24
2023-01-15T12:55:07.480Z,-19.23
2023-01-15T12:58:51.052Z,-19.17
2023-01-15T13:02:20.535Z,-19.19
2023-01-15T13:05:38.290Z,-19.06
2023-01-15T13:09:00.287Z,-18.98
2023-01-15T13:12:03.879Z,-18.90
2023-01-15T13:15:08.541Z,-18.94
2023-01-15T13:18:27.328Z,-18.93
2023-01-15T13:21:35.891Z,-18.93
2023-01-15T13:24:56.810Z,-19.00
2023-01-15T13:28:03.563Z,-19.07
2023-01-15T13:31:12.200Z,-19.07
2023-01-15T13:34:20.343Z,-19.01
2023-01-15T13:37:33.230Z,-18.99
2023-01-15T13:40:44.864Z,-19.03
2023-01-15T13:43:48.300Z,-19.08
2023-01-15T13:47:13.893Z,-19.06
2023-01-15T13:50:28.842Z,-19.00
2023-01-15T13:53:45.829Z,-18.92
2023-01-15T13:56:49.037Z,-19.05
2023-01-15T13:59:52.301Z,-19.04
2023-01-15T14:02:58.209Z,-19.02
2023-01-15T14:06:04.793Z,-19.03
2023-01-15T14:09:12.285Z,-19.00
2023-01-15T14:12:44.322Z,-18.92
2023-01-15T14:16:16.825Z,-18.91
2023-01-15T14:20:05.214Z,-18.94
2023-01-15T14:23:46.251Z,-19.23
2023-01-15T14:26:55.202Z,-19.39
2023-01-15T14:30:12.467Z,-19.45
2023-01-15T14:33:21.381Z,-19.42
2023-01-15T14:36:30.876Z,-19.40
2023-01-15T14:39:50.717Z,-19.26
2023-01-15T14:43:03.029Z,-19.09
2023-01-15T14:46:27.531Z,-18.96
2023-01-15T14:49:32.496Z,-18.87
2023-01-15T14:52:36.155Z,-18.96
2023-01-15T14:55:53.543Z,-18.95
2023-01-15T14:59:26.723Z,-18.95
2023-01-15T15:02:42.839Z,-18.96
2023-01-15T15:05:47.871Z,-18.94
2023-01-15T15:08:53.195Z,-19.05
2023-01-15T15:12:21.667Z,-19.06
2023-01-15T15:15:27.479Z,-18.84
2023-01-15T15:18:45.407Z,-18.69
2023-01-15T15:21:50.108Z,-18.59
2023-01-15T15:24:56.029Z,-18.42
2023-01-15T15:28:07.263Z,-18.50
2023-01-15T15:31:12.245Z,-18.71
2023-01-15T15:34:30.679Z,-18.77
2023-01-15T15:37:35.633Z,-18.74
2023-01-15T15:40:39.791Z,-18.72
2023-01-15T15:44:11.862Z,-18.55
2023-01-15T15:47:43.477Z,-18.44
2023-01-15T15:50:48.980Z,-18.30
2023-01-15T15:53:52.176Z,-18.16
2023-01-15T15:57:18.587Z,-17.99
2023-01-15T16:00:29.230Z,-18.08
2023-01-15T16:03:33.585Z,-18.22
2023-01-15T16:06:37.800Z,-18.22
2023-01-15T16:09:43.363Z,-18.14
2023-01-15T16:12:54.787Z,-18.03
2023-01-15T16:16:00.304Z,-17.95
2023-01-15T16:19:04.176Z,-18.06
2023-01-15T16:22:09.643Z,-18.15
2023-01-15T16:25:27.432Z,-18.35
2023-01-15T16:28:39.856Z,-18.30
2023-01-15T16:31:43.022Z,-18.48
2023-01-15T16:34:46.191Z,-18.63
2023-01-15T16:38:01.400Z,-18.47
2023-01-15T16:41:05.077Z,-18.30
2023-01-15T16:44:09.173Z,-18.43
2023-01-15T16:47:24.544Z,-18.55
2023-01-15T16:50:31.969Z,-18.47
2023-01-15T16:53:41.252Z,-18.34
2023-01-15T16:56:44.513Z,-18.30
2023-01-15T16:59:47.433Z,-18.40
2023-01-15T17:02:51.849Z,-18.65
2023-01-15T17:06:16.811Z,-18.76
2023-01-15T17:09:20.903Z,-18.68
2023-01-15T17:12:35.024Z,-18.68
2023-01-15T17:15:40.694Z,-18.61
2023-01-15T17:18:44.675Z,-18.80
2023-01-15T17:21:48.143Z,-18.99
2023-01-15T17:24:59.716Z,-19.01
2023-01-15T17:28:04.408Z,-19.02
2023-01-15T17:31:15.537Z,-19.17
2023-01-15T17:34:24.045Z,-19.29
2023-01-15T17:37:27.240Z,-19.31
2023-01-15T17:40:33.295Z,-19.19
2023-01-15T17:43:37.071Z,-19.05
2023-01-15T17:46:40.278Z,-18.95
2023-01-15T17:49:43.314Z,-19.01
2023-01-15T17:52:46.952Z,-19.08
2023-01-15T17:56:08.353Z,-19.03
2023-01-15T17:59:31.205Z,-19.12
2023-01-15T18:02:53.802Z,-19.25
2023-01-15T18:05:57.340Z,-19.54
2023-01-15T18:09:03.605Z,-19.73
2023-01-15T18:12:07.355Z,-19.70
2023-01-15T18:15:10.887Z,-19.69
2023-01-15T18:18:16.462Z,-19.58
2023-01-15T18:21:19.535Z,-19.50
2023-01-15T18:24:22.823Z,-19.49
2023-01-15T18:27:30.601Z,-19.56
2023-01-15T18:30:34.750Z,-19.59
2023-01-15T18:33:38.063Z,-19.59
2023-01-15T18:36:41.871Z,-19.62
2023-01-15T18:39:44.739Z,-19.77
2023-01-15T18:43:06.261Z,-19.92
2023-01-15T18:46:35.599Z,-20.08
2023-01-15T18:49:40.007Z,-20.04
2023-01-15T18:52:52.785Z,-19.90
2023-01-15T18:56:02.849Z,-19.90
2023-01-15T18:59:14.305Z,-19.72
2023-01-15T19:02:22.357Z,-19.58
2023-01-15T19:05:25.822Z,-19.50
2023-01-15T19:08:28.888Z,-19.55
2023-01-15T19:11:32.284Z,-19.55
2023-01-15T19:14:53.869Z,-19.54
2023-01-15T19:18:15.241Z,-19.56
2023-01-15T19:21:18.525Z,-19.71
2023-01-15T19:24:21.667Z,-19.73
2023-01-15T19:27:24.959Z,-19.55
2023-01-15T19:30:29.451Z,-19.31
2023-01-15T19:33:33.198Z,-19.15
2023-01-15T19:36:36.259Z,-19.27
2023-01-15T19:39:39.341Z,-19.74
2023-01-15T19:43:00.906Z,-20.05
2023-01-15T19:46:22.689Z,-20.15
2023-01-15T19:49:44.262Z,-19.98
2023-01-15T19:52:56.218Z,-19.73
2023-01-15T19:55:59.254Z,-19.76
2023-01-15T19:59:02.282Z,-19.99
2023-01-15T20:02:05.510Z,-20.10
2023-01-15T20:05:09.852Z,-19.98
2023-01-15T20:08:15.032Z,-19.85
2023-01-15T20:11:18.139Z,-19.79
2023-01-15T20:14:21.311Z,-19.70
2023-01-15T20:17:25.217Z,-19.71
2023-01-15T20:20:28.365Z,-19.83
2023-01-15T20:23:31.640Z,-19.76
2023-01-15T20:26:34.831Z,-19.63
2023-01-15T20:29:38.050Z,-19.62
2023-01-15T20:32:44.189Z,-19.63
2023-01-15T20:35:47.303Z,-19.75
2023-01-15T20:38:50.310Z,-19.87
2023-01-15T20:42:11.932Z,-19.94
2023-01-15T20:45:15.262Z,-20.15
2023-01-15T20:48:36.841Z,-20.39
2023-01-15T20:51:39.940Z,-20.46
2023-01-15T20:54:43.174Z,-20.30
2023-01-15T20:57:47.066Z,-20.19
2023-01-15T21:00:51.307Z,-20.14
2023-01-15T21:03:54.541Z,-20.16
2023-01-15T21:06:57.667Z,-20.19
2023-01-15T21:10:00.869Z,-20.28
2023-01-15T21:13:04.031Z,-20.26
2023-01-15T21:16:07.900Z,-20.35
2023-01-15T21:19:11.041Z,-20.50
2023-01-15T21:22:14.240Z,-20.54
2023-01-15T21:25:17.430Z,-20.73
2023-01-15T21:28:20.633Z,-20.83
2023-01-15T21:31:23.911Z,-20.67
2023-01-15T21:34:27.209Z,-20.82
2023-01-15T21:37:30.816Z,-20.76
2023-01-15T21:40:33.583Z,-20.51
2023-01-15T21:43:55.347Z,-20.40
2023-01-15T21:47:04.362Z,-20.52
2023-01-15T21:50:07.883Z,-20.65
2023-01-15T21:53:10.987Z,-20.57
2023-01-15T21:56:14.374Z,-20.54
2023-01-15T21:59:17.649Z,-20.55
2023-01-15T22:02:22.413Z,-20.69
2023-01-15T22:05:25.572Z,-20.62
2023-01-15T22:08:28.714Z,-20.45
2023-01-15T22:11:46.879Z,-20.32
2023-01-15T22:14:50.397Z,-20.13
2023-01-15T22:17:58.033Z,-20.20
2023-01-15T22:21:06.480Z,-20.37
2023-01-15T22:24:09.652Z,-20.41
2023-01-15T22:27:16.577Z,-20.42
2023-01-15T22:30:19.833Z,-20.48
2023-01-15T22:33:23.165Z,-20.35
2023-01-15T22:36:27.696Z,-20.17
2023-01-15T22:39:31.198Z,-20.10
2023-01-15T22:42:34.368Z,-19.91
2023-01-15T22:45:37.507Z,-19.81
2023-01-15T22:48:41.004Z,-19.71
2023-01-15T22:51:44.808Z,-19.84
2023-01-15T22:54:47.740Z,-19.86
2023-01-15T22:57:50.894Z,-19.91
2023-01-15T23:00:57.727Z,-19.85
2023-01-15T23:04:01.438Z,-19.75
2023-01-15T23:07:04.759Z,-19.93
2023-01-15T23:10:10.921Z,-20.03
2023-01-15T23:13:14.623Z,-20.04
2023-01-15T23:16:18.227Z,-20.08
2023-01-15T23:19:21.697Z,-20.12
2023-01-15T23:22:27.933Z,-20.03
2023-01-15T23:25:31.646Z,-20.05
2023-01-15T23:28:35.163Z,-19.94
2023-01-15T23:31:38.514Z,-19.79
2023-01-15T23:34:41.980Z,-19.70
2023-01-15T23:37:45.173Z,-19.58
2023-01-15T23:40:48.934Z,-19.31
2023-01-15T23:44:27.211Z,-19.01
2023-01-15T23:47:31.125Z,-18.84
2023-01-15T23:50:34.055Z,-18.66
2023-01-15T23:53:37.270Z,-18.51
2023-01-15T23:56:40.472Z,-18.52
2023-01-15T23:59:44.571Z,-18.48
